Bratislava, Slovakia
Current Conditions -  °F | °C
As of 2:30 PM on Thursday 18 Dec 2014 (Local Time) from LZIB Reporting Station
Clear Clear  
Wind Chill:   Ceiling: Unl
Heat Index:   Visibility: 6mi
Dew Point:   Wind: 5mph
Humidity: 82%   Direction: 240°WSW
Pressure: 30.03"   Gusts: NA
Location:  48.16°N, 17.13°E
Report Text: LZIB 181230Z 24004KT CAVOK 09/06 Q1017 NOSIG
Loading
Personal Weather Stations






























Interactive Weather Map New forecast layout! Learn more

10-Day Weather Forecast

Advertisements
Track Severe Weather on mobile